sensor_id;sensor_type;location;lat;lon;timestamp;P1;durP1;ratioP1;P2;durP2;ratioP2
11598;SDS011;5855;48.840;9.188;2023-12-20T00:00:59;1.50;;;1.40;;
11598;SDS011;5855;48.840;9.188;2023-12-20T00:03:27;1.42;;;1.33;;
11598;SDS011;5855;48.840;9.188;2023-12-20T00:05:55;1.58;;;1.40;;
11598;SDS011;5855;48.840;9.188;2023-12-20T00:11:29;1.30;;;1.20;;
11598;SDS011;5855;48.840;9.188;2023-12-20T00:13:56;2.28;;;1.52;;
11598;SDS011;5855;48.840;9.188;2023-12-20T00:16:23;1.40;;;1.30;;
11598;SDS011;5855;48.840;9.188;2023-12-20T00:25:16;1.20;;;1.10;;
11598;SDS011;5855;48.840;9.188;2023-12-20T00:31:06;1.45;;;1.08;;
11598;SDS011;5855;48.840;9.188;2023-12-20T00:36:20;1.30;;;1.00;;
11598;SDS011;5855;48.840;9.188;2023-12-20T00:41:33;1.25;;;1.15;;
11598;SDS011;5855;48.840;9.188;2023-12-20T00:44:01;1.52;;;1.40;;
11598;SDS011;5855;48.840;9.188;2023-12-20T00:52:43;2.30;;;2.10;;
11598;SDS011;5855;48.840;9.188;2023-12-20T00:55:11;2.50;;;1.38;;
11598;SDS011;5855;48.840;9.188;2023-12-20T01:03:47;1.92;;;1.67;;
11598;SDS011;5855;48.840;9.188;2023-12-20T01:09:23;1.95;;;1.63;;
11598;SDS011;5855;48.840;9.188;2023-12-20T01:11:52;2.53;;;1.67;;
11598;SDS011;5855;48.840;9.188;2023-12-20T01:17:27;2.53;;;1.70;;
11598;SDS011;5855;48.840;9.188;2023-12-20T01:19:53;1.90;;;1.80;;
11598;SDS011;5855;48.840;9.188;2023-12-20T01:28:34;3.25;;;2.83;;
11598;SDS011;5855;48.840;9.188;2023-12-20T01:31:03;3.47;;;2.75;;
11598;SDS011;5855;48.840;9.188;2023-12-20T01:36:03;3.42;;;2.40;;
11598;SDS011;5855;48.840;9.188;2023-12-20T01:38:30;2.03;;;1.67;;
11598;SDS011;5855;48.840;9.188;2023-12-20T01:40:57;1.98;;;1.75;;
11598;SDS011;5855;48.840;9.188;2023-12-20T01:43:26;3.10;;;1.85;;
11598;SDS011;5855;48.840;9.188;2023-12-20T01:45:56;3.78;;;1.70;;
11598;SDS011;5855;48.840;9.188;2023-12-20T01:48:24;1.92;;;1.65;;
11598;SDS011;5855;48.840;9.188;2023-12-20T01:50:51;1.80;;;1.70;;
11598;SDS011;5855;48.840;9.188;2023-12-20T01:53:20;2.08;;;1.88;;
11598;SDS011;5855;48.840;9.188;2023-12-20T01:58:41;3.42;;;3.13;;
11598;SDS011;5855;48.840;9.188;2023-12-20T02:01:13;3.88;;;2.97;;
11598;SDS011;5855;48.840;9.188;2023-12-20T02:03:41;3.65;;;3.03;;
11598;SDS011;5855;48.840;9.188;2023-12-20T02:06:09;3.05;;;2.75;;
11598;SDS011;5855;48.840;9.188;2023-12-20T02:20:06;3.22;;;2.30;;
11598;SDS011;5855;48.840;9.188;2023-12-20T02:25:41;2.45;;;2.25;;
11598;SDS011;5855;48.840;9.188;2023-12-20T02:37:41;2.50;;;2.30;;
11598;SDS011;5855;48.840;9.188;2023-12-20T02:40:08;2.72;;;2.33;;
11598;SDS011;5855;48.840;9.188;2023-12-20T02:42:37;4.15;;;2.42;;
11598;SDS011;5855;48.840;9.188;2023-12-20T02:48:12;2.33;;;2.13;;
11598;SDS011;5855;48.840;9.188;2023-12-20T02:54:01;1.88;;;1.48;;
11598;SDS011;5855;48.840;9.188;2023-12-20T02:56:27;1.40;;;1.30;;
11598;SDS011;5855;48.840;9.188;2023-12-20T02:58:56;1.60;;;1.10;;
11598;SDS011;5855;48.840;9.188;2023-12-20T03:01:22;1.15;;;1.10;;
11598;SDS011;5855;48.840;9.188;2023-12-20T03:03:49;1.10;;;1.00;;
11598;SDS011;5855;48.840;9.188;2023-12-20T03:06:16;0.85;;;0.80;;
11598;SDS011;5855;48.840;9.188;2023-12-20T03:08:44;0.70;;;0.65;;
11598;SDS011;5855;48.840;9.188;2023-12-20T03:11:11;0.68;;;0.68;;
11598;SDS011;5855;48.840;9.188;2023-12-20T03:13:38;0.40;;;0.40;;
11598;SDS011;5855;48.840;9.188;2023-12-20T03:16:09;0.40;;;0.40;;
11598;SDS011;5855;48.840;9.188;2023-12-20T03:18:36;1.38;;;0.50;;
11598;SDS011;5855;48.840;9.188;2023-12-20T03:21:03;1.25;;;0.50;;
11598;SDS011;5855;48.840;9.188;2023-12-20T03:23:31;0.40;;;0.40;;
11598;SDS011;5855;48.840;9.188;2023-12-20T03:25:58;0.85;;;0.50;;
11598;SDS011;5855;48.840;9.188;2023-12-20T03:28:26;0.50;;;0.50;;
11598;SDS011;5855;48.840;9.188;2023-12-20T03:30:53;1.15;;;0.50;;
11598;SDS011;5855;48.840;9.188;2023-12-20T03:33:21;2.10;;;0.55;;
11598;SDS011;5855;48.840;9.188;2023-12-20T03:35:48;0.50;;;0.40;;
11598;SDS011;5855;48.840;9.188;2023-12-20T03:38:15;0.57;;;0.50;;
11598;SDS011;5855;48.840;9.188;2023-12-20T03:40:42;0.45;;;0.45;;
11598;SDS011;5855;48.840;9.188;2023-12-20T03:43:09;0.43;;;0.43;;
11598;SDS011;5855;48.840;9.188;2023-12-20T03:45:36;0.43;;;0.43;;
11598;SDS011;5855;48.840;9.188;2023-12-20T03:48:03;0.55;;;0.50;;
11598;SDS011;5855;48.840;9.188;2023-12-20T03:50:31;0.40;;;0.40;;
11598;SDS011;5855;48.840;9.188;2023-12-20T03:52:58;0.40;;;0.40;;
11598;SDS011;5855;48.840;9.188;2023-12-20T03:55:25;0.65;;;0.50;;
11598;SDS011;5855;48.840;9.188;2023-12-20T03:57:52;0.40;;;0.40;;
11598;SDS011;5855;48.840;9.188;2023-12-20T04:00:19;0.50;;;0.50;;
11598;SDS011;5855;48.840;9.188;2023-12-20T04:02:46;0.77;;;0.40;;
11598;SDS011;5855;48.840;9.188;2023-12-20T04:05:12;0.60;;;0.60;;
11598;SDS011;5855;48.840;9.188;2023-12-20T04:07:40;0.63;;;0.55;;
11598;SDS011;5855;48.840;9.188;2023-12-20T04:10:08;0.43;;;0.43;;
11598;SDS011;5855;48.840;9.188;2023-12-20T04:12:35;0.73;;;0.50;;
11598;SDS011;5855;48.840;9.188;2023-12-20T04:15:01;0.40;;;0.40;;
11598;SDS011;5855;48.840;9.188;2023-12-20T04:17:34;0.50;;;0.50;;
11598;SDS011;5855;48.840;9.188;2023-12-20T04:20:00;1.90;;;0.60;;
11598;SDS011;5855;48.840;9.188;2023-12-20T04:22:28;0.57;;;0.50;;
11598;SDS011;5855;48.840;9.188;2023-12-20T04:24:56;0.40;;;0.40;;
11598;SDS011;5855;48.840;9.188;2023-12-20T04:27:22;0.63;;;0.52;;
11598;SDS011;5855;48.840;9.188;2023-12-20T04:29:49;0.50;;;0.50;;
11598;SDS011;5855;48.840;9.188;2023-12-20T04:32:16;0.60;;;0.60;;
11598;SDS011;5855;48.840;9.188;2023-12-20T04:34:43;0.40;;;0.40;;
11598;SDS011;5855;48.840;9.188;2023-12-20T04:37:10;0.40;;;0.40;;
11598;SDS011;5855;48.840;9.188;2023-12-20T04:39:37;1.23;;;0.55;;
11598;SDS011;5855;48.840;9.188;2023-12-20T04:42:07;0.65;;;0.50;;
11598;SDS011;5855;48.840;9.188;2023-12-20T04:44:34;0.82;;;0.60;;
11598;SDS011;5855;48.840;9.188;2023-12-20T04:47:01;0.68;;;0.68;;
11598;SDS011;5855;48.840;9.188;2023-12-20T04:49:28;0.60;;;0.60;;
11598;SDS011;5855;48.840;9.188;2023-12-20T04:51:55;0.60;;;0.60;;
11598;SDS011;5855;48.840;9.188;2023-12-20T04:54:22;0.60;;;0.60;;
11598;SDS011;5855;48.840;9.188;2023-12-20T04:56:49;0.40;;;0.40;;
11598;SDS011;5855;48.840;9.188;2023-12-20T04:59:17;1.00;;;0.60;;
11598;SDS011;5855;48.840;9.188;2023-12-20T05:01:44;2.45;;;0.60;;
11598;SDS011;5855;48.840;9.188;2023-12-20T05:04:10;1.05;;;0.70;;
11598;SDS011;5855;48.840;9.188;2023-12-20T05:06:37;0.50;;;0.50;;
11598;SDS011;5855;48.840;9.188;2023-12-20T05:09:04;2.05;;;0.68;;
11598;SDS011;5855;48.840;9.188;2023-12-20T05:11:31;0.60;;;0.60;;
11598;SDS011;5855;48.840;9.188;2023-12-20T05:13:58;0.73;;;0.55;;
11598;SDS011;5855;48.840;9.188;2023-12-20T05:16:26;0.68;;;0.40;;
11598;SDS011;5855;48.840;9.188;2023-12-20T05:18:53;0.70;;;0.70;;
11598;SDS011;5855;48.840;9.188;2023-12-20T05:21:21;0.68;;;0.50;;
11598;SDS011;5855;48.840;9.188;2023-12-20T05:23:47;0.60;;;0.60;;
11598;SDS011;5855;48.840;9.188;2023-12-20T05:26:14;1.00;;;0.50;;
11598;SDS011;5855;48.840;9.188;2023-12-20T05:28:41;1.27;;;0.70;;
11598;SDS011;5855;48.840;9.188;2023-12-20T05:31:08;1.00;;;0.60;;
11598;SDS011;5855;48.840;9.188;2023-12-20T05:33:36;0.55;;;0.55;;
11598;SDS011;5855;48.840;9.188;2023-12-20T05:36:03;1.02;;;0.70;;
11598;SDS011;5855;48.840;9.188;2023-12-20T05:38:30;3.63;;;0.50;;
11598;SDS011;5855;48.840;9.188;2023-12-20T05:40:57;1.25;;;0.70;;
11598;SDS011;5855;48.840;9.188;2023-12-20T05:43:24;0.60;;;0.60;;
11598;SDS011;5855;48.840;9.188;2023-12-20T05:45:51;1.92;;;0.70;;
11598;SDS011;5855;48.840;9.188;2023-12-20T05:48:19;0.88;;;0.88;;
11598;SDS011;5855;48.840;9.188;2023-12-20T05:53:37;0.85;;;0.85;;
11598;SDS011;5855;48.840;9.188;2023-12-20T05:56:04;0.90;;;0.88;;
11598;SDS011;5855;48.840;9.188;2023-12-20T05:58:31;0.90;;;0.90;;
11598;SDS011;5855;48.840;9.188;2023-12-20T06:00:58;0.90;;;0.90;;
11598;SDS011;5855;48.840;9.188;2023-12-20T06:03:25;1.23;;;0.90;;
11598;SDS011;5855;48.840;9.188;2023-12-20T06:05:52;1.60;;;1.00;;
11598;SDS011;5855;48.840;9.188;2023-12-20T06:08:20;1.10;;;1.00;;
11598;SDS011;5855;48.840;9.188;2023-12-20T06:10:47;1.20;;;1.10;;
11598;SDS011;5855;48.840;9.188;2023-12-20T06:13:14;1.45;;;1.35;;
11598;SDS011;5855;48.840;9.188;2023-12-20T06:15:41;2.42;;;1.20;;
11598;SDS011;5855;48.840;9.188;2023-12-20T06:18:08;1.45;;;1.33;;
11598;SDS011;5855;48.840;9.188;2023-12-20T06:20:35;1.20;;;1.10;;
11598;SDS011;5855;48.840;9.188;2023-12-20T06:23:03;1.30;;;1.10;;
11598;SDS011;5855;48.840;9.188;2023-12-20T06:25:31;1.17;;;1.17;;
11598;SDS011;5855;48.840;9.188;2023-12-20T06:27:58;1.60;;;1.08;;
11598;SDS011;5855;48.840;9.188;2023-12-20T06:30:24;1.27;;;1.10;;
11598;SDS011;5855;48.840;9.188;2023-12-20T06:32:52;1.23;;;1.10;;
11598;SDS011;5855;48.840;9.188;2023-12-20T06:35:20;1.35;;;1.15;;
11598;SDS011;5855;48.840;9.188;2023-12-20T06:37:49;1.38;;;1.20;;
11598;SDS011;5855;48.840;9.188;2023-12-20T06:40:16;2.08;;;1.30;;
11598;SDS011;5855;48.840;9.188;2023-12-20T06:42:44;1.63;;;1.30;;
11598;SDS011;5855;48.840;9.188;2023-12-20T06:45:12;1.70;;;1.23;;
11598;SDS011;5855;48.840;9.188;2023-12-20T06:47:38;2.03;;;1.20;;
11598;SDS011;5855;48.840;9.188;2023-12-20T06:50:05;1.40;;;1.20;;
11598;SDS011;5855;48.840;9.188;2023-12-20T06:52:33;1.48;;;1.38;;
11598;SDS011;5855;48.840;9.188;2023-12-20T06:55:01;2.15;;;1.60;;
11598;SDS011;5855;48.840;9.188;2023-12-20T06:57:27;1.70;;;1.60;;
11598;SDS011;5855;48.840;9.188;2023-12-20T06:59:56;2.22;;;1.83;;
11598;SDS011;5855;48.840;9.188;2023-12-20T07:02:23;2.08;;;1.98;;
11598;SDS011;5855;48.840;9.188;2023-12-20T07:04:50;2.15;;;1.95;;
11598;SDS011;5855;48.840;9.188;2023-12-20T07:07:17;2.47;;;2.25;;
11598;SDS011;5855;48.840;9.188;2023-12-20T07:09:44;3.65;;;3.20;;
11598;SDS011;5855;48.840;9.188;2023-12-20T07:12:10;3.03;;;2.80;;
11598;SDS011;5855;48.840;9.188;2023-12-20T07:14:37;2.95;;;2.75;;
11598;SDS011;5855;48.840;9.188;2023-12-20T07:17:06;3.47;;;3.13;;
11598;SDS011;5855;48.840;9.188;2023-12-20T07:19:36;3.72;;;3.42;;
11598;SDS011;5855;48.840;9.188;2023-12-20T07:22:03;3.83;;;3.53;;
11598;SDS011;5855;48.840;9.188;2023-12-20T07:24:30;3.92;;;3.63;;
11598;SDS011;5855;48.840;9.188;2023-12-20T07:26:57;3.53;;;3.22;;
11598;SDS011;5855;48.840;9.188;2023-12-20T07:29:25;3.50;;;3.28;;
11598;SDS011;5855;48.840;9.188;2023-12-20T07:34:20;3.05;;;2.80;;
11598;SDS011;5855;48.840;9.188;2023-12-20T07:36:47;3.20;;;3.00;;
11598;SDS011;5855;48.840;9.188;2023-12-20T07:39:14;3.40;;;2.70;;
11598;SDS011;5855;48.840;9.188;2023-12-20T07:41:41;3.55;;;2.50;;
11598;SDS011;5855;48.840;9.188;2023-12-20T07:44:08;2.60;;;2.40;;
11598;SDS011;5855;48.840;9.188;2023-12-20T07:46:35;2.70;;;2.50;;
11598;SDS011;5855;48.840;9.188;2023-12-20T07:49:01;5.00;;;2.40;;
11598;SDS011;5855;48.840;9.188;2023-12-20T07:51:30;4.07;;;3.03;;
11598;SDS011;5855;48.840;9.188;2023-12-20T07:53:56;3.55;;;2.40;;
11598;SDS011;5855;48.840;9.188;2023-12-20T07:56:23;2.50;;;2.30;;
11598;SDS011;5855;48.840;9.188;2023-12-20T07:58:50;3.13;;;2.28;;
11598;SDS011;5855;48.840;9.188;2023-12-20T08:01:17;4.05;;;2.28;;
11598;SDS011;5855;48.840;9.188;2023-12-20T08:03:44;2.65;;;2.45;;
11598;SDS011;5855;48.840;9.188;2023-12-20T08:06:11;5.10;;;2.83;;
11598;SDS011;5855;48.840;9.188;2023-12-20T08:08:39;3.00;;;2.80;;
11598;SDS011;5855;48.840;9.188;2023-12-20T08:11:06;2.65;;;2.45;;
11598;SDS011;5855;48.840;9.188;2023-12-20T08:13:33;3.13;;;2.40;;
11598;SDS011;5855;48.840;9.188;2023-12-20T08:16:00;2.53;;;2.33;;
11598;SDS011;5855;48.840;9.188;2023-12-20T08:18:28;3.00;;;2.70;;
11598;SDS011;5855;48.840;9.188;2023-12-20T08:20:54;2.85;;;2.60;;
11598;SDS011;5855;48.840;9.188;2023-12-20T08:23:21;3.60;;;2.70;;
11598;SDS011;5855;48.840;9.188;2023-12-20T08:25:50;2.95;;;2.75;;
11598;SDS011;5855;48.840;9.188;2023-12-20T08:28:16;2.83;;;2.63;;
11598;SDS011;5855;48.840;9.188;2023-12-20T08:30:43;5.13;;;2.90;;
11598;SDS011;5855;48.840;9.188;2023-12-20T08:33:10;4.53;;;2.88;;
11598;SDS011;5855;48.840;9.188;2023-12-20T08:35:38;3.53;;;2.90;;
11598;SDS011;5855;48.840;9.188;2023-12-20T08:38:05;5.18;;;2.90;;
11598;SDS011;5855;48.840;9.188;2023-12-20T08:40:31;2.80;;;2.60;;
11598;SDS011;5855;48.840;9.188;2023-12-20T08:43:00;3.47;;;2.88;;
11598;SDS011;5855;48.840;9.188;2023-12-20T08:45:26;3.83;;;2.78;;
11598;SDS011;5855;48.840;9.188;2023-12-20T08:47:53;5.18;;;2.90;;
11598;SDS011;5855;48.840;9.188;2023-12-20T08:50:20;4.13;;;2.70;;
11598;SDS011;5855;48.840;9.188;2023-12-20T08:52:47;3.50;;;2.33;;
11598;SDS011;5855;48.840;9.188;2023-12-20T08:55:14;3.58;;;2.65;;
11598;SDS011;5855;48.840;9.188;2023-12-20T08:57:43;3.17;;;2.47;;
11598;SDS011;5855;48.840;9.188;2023-12-20T09:00:11;3.17;;;2.30;;
11598;SDS011;5855;48.840;9.188;2023-12-20T09:02:39;3.40;;;2.30;;
11598;SDS011;5855;48.840;9.188;2023-12-20T09:05:07;2.90;;;2.40;;
11598;SDS011;5855;48.840;9.188;2023-12-20T09:07:34;3.03;;;2.47;;
11598;SDS011;5855;48.840;9.188;2023-12-20T09:10:01;3.50;;;2.45;;
11598;SDS011;5855;48.840;9.188;2023-12-20T09:12:28;2.50;;;2.20;;
11598;SDS011;5855;48.840;9.188;2023-12-20T09:14:55;2.97;;;2.08;;
11598;SDS011;5855;48.840;9.188;2023-12-20T09:17:23;2.10;;;1.90;;
11598;SDS011;5855;48.840;9.188;2023-12-20T09:19:50;2.70;;;2.10;;
11598;SDS011;5855;48.840;9.188;2023-12-20T09:22:19;2.85;;;1.98;;
11598;SDS011;5855;48.840;9.188;2023-12-20T09:24:46;2.00;;;1.85;;
11598;SDS011;5855;48.840;9.188;2023-12-20T09:27:15;3.05;;;2.33;;
11598;SDS011;5855;48.840;9.188;2023-12-20T09:29:42;2.80;;;1.90;;
11598;SDS011;5855;48.840;9.188;2023-12-20T09:32:09;3.22;;;1.80;;
11598;SDS011;5855;48.840;9.188;2023-12-20T09:34:37;2.95;;;1.90;;
11598;SDS011;5855;48.840;9.188;2023-12-20T09:37:04;4.07;;;1.77;;
11598;SDS011;5855;48.840;9.188;2023-12-20T09:39:32;3.20;;;2.13;;
11598;SDS011;5855;48.840;9.188;2023-12-20T09:42:00;2.75;;;1.70;;
11598;SDS011;5855;48.840;9.188;2023-12-20T09:44:28;3.80;;;1.80;;
11598;SDS011;5855;48.840;9.188;2023-12-20T09:46:56;2.95;;;1.50;;
11598;SDS011;5855;48.840;9.188;2023-12-20T09:49:23;1.63;;;1.33;;
11598;SDS011;5855;48.840;9.188;2023-12-20T09:51:55;3.40;;;1.58;;
11598;SDS011;5855;48.840;9.188;2023-12-20T09:54:23;3.97;;;1.27;;
11598;SDS011;5855;48.840;9.188;2023-12-20T09:56:50;4.10;;;1.40;;
11598;SDS011;5855;48.840;9.188;2023-12-20T09:59:17;5.35;;;1.50;;
11598;SDS011;5855;48.840;9.188;2023-12-20T10:01:44;3.42;;;1.42;;
11598;SDS011;5855;48.840;9.188;2023-12-20T10:04:11;5.15;;;1.63;;
11598;SDS011;5855;48.840;9.188;2023-12-20T10:06:39;3.35;;;1.45;;
11598;SDS011;5855;48.840;9.188;2023-12-20T10:09:07;4.50;;;1.52;;
11598;SDS011;5855;48.840;9.188;2023-12-20T10:11:35;5.32;;;1.50;;
11598;SDS011;5855;48.840;9.188;2023-12-20T10:14:03;3.65;;;1.35;;
11598;SDS011;5855;48.840;9.188;2023-12-20T10:16:30;3.17;;;1.23;;
11598;SDS011;5855;48.840;9.188;2023-12-20T10:18:57;5.43;;;1.65;;
11598;SDS011;5855;48.840;9.188;2023-12-20T10:21:26;7.07;;;1.35;;
11598;SDS011;5855;48.840;9.188;2023-12-20T10:23:53;2.65;;;1.38;;
11598;SDS011;5855;48.840;9.188;2023-12-20T10:26:22;6.93;;;1.70;;
11598;SDS011;5855;48.840;9.188;2023-12-20T10:28:50;3.72;;;1.65;;
11598;SDS011;5855;48.840;9.188;2023-12-20T10:31:25;5.85;;;1.70;;
11598;SDS011;5855;48.840;9.188;2023-12-20T10:33:53;4.57;;;1.85;;
11598;SDS011;5855;48.840;9.188;2023-12-20T10:36:22;3.60;;;1.80;;
11598;SDS011;5855;48.840;9.188;2023-12-20T10:38:51;7.00;;;1.60;;
11598;SDS011;5855;48.840;9.188;2023-12-20T10:41:19;6.53;;;1.58;;
11598;SDS011;5855;48.840;9.188;2023-12-20T10:43:54;3.65;;;1.70;;
11598;SDS011;5855;48.840;9.188;2023-12-20T10:46:24;3.70;;;1.55;;
11598;SDS011;5855;48.840;9.188;2023-12-20T10:48:53;3.90;;;1.55;;
11598;SDS011;5855;48.840;9.188;2023-12-20T10:51:20;3.13;;;1.45;;
11598;SDS011;5855;48.840;9.188;2023-12-20T10:53:48;4.60;;;1.55;;
11598;SDS011;5855;48.840;9.188;2023-12-20T10:56:15;4.13;;;1.67;;
11598;SDS011;5855;48.840;9.188;2023-12-20T10:58:46;3.97;;;1.58;;
11598;SDS011;5855;48.840;9.188;2023-12-20T11:01:14;5.15;;;1.50;;
11598;SDS011;5855;48.840;9.188;2023-12-20T11:03:43;5.03;;;1.45;;
11598;SDS011;5855;48.840;9.188;2023-12-20T11:06:17;5.10;;;1.58;;
11598;SDS011;5855;48.840;9.188;2023-12-20T11:09:03;5.95;;;1.98;;
11598;SDS011;5855;48.840;9.188;2023-12-20T11:11:40;3.47;;;1.50;;
11598;SDS011;5855;48.840;9.188;2023-12-20T11:14:22;4.75;;;1.60;;
11598;SDS011;5855;48.840;9.188;2023-12-20T11:17:00;3.75;;;1.50;;
11598;SDS011;5855;48.840;9.188;2023-12-20T11:19:32;4.70;;;1.55;;
11598;SDS011;5855;48.840;9.188;2023-12-20T11:22:03;6.32;;;1.70;;
11598;SDS011;5855;48.840;9.188;2023-12-20T11:24:31;3.47;;;1.70;;
11598;SDS011;5855;48.840;9.188;2023-12-20T11:26:59;3.83;;;1.50;;
11598;SDS011;5855;48.840;9.188;2023-12-20T11:29:32;4.07;;;1.40;;
11598;SDS011;5855;48.840;9.188;2023-12-20T11:32:00;5.72;;;1.75;;
11598;SDS011;5855;48.840;9.188;2023-12-20T11:34:28;4.35;;;1.40;;
11598;SDS011;5855;48.840;9.188;2023-12-20T11:36:57;4.07;;;1.30;;
11598;SDS011;5855;48.840;9.188;2023-12-20T11:39:25;4.50;;;1.80;;
11598;SDS011;5855;48.840;9.188;2023-12-20T11:41:54;3.72;;;1.65;;
11598;SDS011;5855;48.840;9.188;2023-12-20T11:44:22;4.40;;;1.70;;
11598;SDS011;5855;48.840;9.188;2023-12-20T11:46:52;3.78;;;1.40;;
11598;SDS011;5855;48.840;9.188;2023-12-20T11:49:22;5.60;;;1.52;;
11598;SDS011;5855;48.840;9.188;2023-12-20T11:51:50;1.90;;;1.33;;
11598;SDS011;5855;48.840;9.188;2023-12-20T11:54:17;5.38;;;1.55;;
11598;SDS011;5855;48.840;9.188;2023-12-20T11:56:45;3.95;;;1.70;;
11598;SDS011;5855;48.840;9.188;2023-12-20T11:59:12;5.55;;;1.58;;
11598;SDS011;5855;48.840;9.188;2023-12-20T12:01:39;6.57;;;1.83;;
11598;SDS011;5855;48.840;9.188;2023-12-20T12:04:07;6.53;;;1.77;;
11598;SDS011;5855;48.840;9.188;2023-12-20T12:06:34;5.63;;;2.00;;
11598;SDS011;5855;48.840;9.188;2023-12-20T12:09:00;6.05;;;1.63;;
11598;SDS011;5855;48.840;9.188;2023-12-20T12:11:29;6.40;;;1.70;;
11598;SDS011;5855;48.840;9.188;2023-12-20T12:13:55;7.10;;;1.50;;
11598;SDS011;5855;48.840;9.188;2023-12-20T12:16:22;4.55;;;1.60;;
11598;SDS011;5855;48.840;9.188;2023-12-20T12:18:54;4.90;;;1.83;;
11598;SDS011;5855;48.840;9.188;2023-12-20T12:21:23;4.82;;;1.50;;
11598;SDS011;5855;48.840;9.188;2023-12-20T12:23:50;3.55;;;1.52;;
11598;SDS011;5855;48.840;9.188;2023-12-20T12:26:18;4.20;;;1.52;;
11598;SDS011;5855;48.840;9.188;2023-12-20T12:28:45;8.00;;;1.90;;
11598;SDS011;5855;48.840;9.188;2023-12-20T12:31:15;3.10;;;1.73;;
11598;SDS011;5855;48.840;9.188;2023-12-20T12:33:42;5.15;;;1.42;;
11598;SDS011;5855;48.840;9.188;2023-12-20T12:36:09;5.80;;;1.90;;
11598;SDS011;5855;48.840;9.188;2023-12-20T12:38:38;4.90;;;1.50;;
11598;SDS011;5855;48.840;9.188;2023-12-20T12:41:05;4.60;;;1.52;;
11598;SDS011;5855;48.840;9.188;2023-12-20T12:43:32;3.38;;;1.25;;
11598;SDS011;5855;48.840;9.188;2023-12-20T12:45:59;3.95;;;1.40;;
11598;SDS011;5855;48.840;9.188;2023-12-20T12:48:26;1.80;;;1.20;;
11598;SDS011;5855;48.840;9.188;2023-12-20T12:50:54;4.65;;;1.77;;
11598;SDS011;5855;48.840;9.188;2023-12-20T12:53:24;5.65;;;1.80;;
11598;SDS011;5855;48.840;9.188;2023-12-20T12:55:52;5.70;;;1.50;;
11598;SDS011;5855;48.840;9.188;2023-12-20T12:58:19;4.30;;;1.50;;
11598;SDS011;5855;48.840;9.188;2023-12-20T13:00:47;4.85;;;1.63;;
11598;SDS011;5855;48.840;9.188;2023-12-20T13:03:14;3.60;;;1.60;;
11598;SDS011;5855;48.840;9.188;2023-12-20T13:05:41;2.88;;;1.30;;
11598;SDS011;5855;48.840;9.188;2023-12-20T13:08:08;5.40;;;1.60;;
11598;SDS011;5855;48.840;9.188;2023-12-20T13:10:37;2.03;;;1.38;;
11598;SDS011;5855;48.840;9.188;2023-12-20T13:13:05;5.85;;;1.80;;
11598;SDS011;5855;48.840;9.188;2023-12-20T13:15:32;3.53;;;1.45;;
11598;SDS011;5855;48.840;9.188;2023-12-20T13:17:59;3.40;;;1.50;;
11598;SDS011;5855;48.840;9.188;2023-12-20T13:20:26;3.33;;;1.40;;
11598;SDS011;5855;48.840;9.188;2023-12-20T13:22:55;4.20;;;1.58;;
11598;SDS011;5855;48.840;9.188;2023-12-20T13:25:22;3.97;;;1.45;;
11598;SDS011;5855;48.840;9.188;2023-12-20T13:27:50;4.22;;;1.55;;
11598;SDS011;5855;48.840;9.188;2023-12-20T13:30:21;4.50;;;1.48;;
11598;SDS011;5855;48.840;9.188;2023-12-20T13:32:48;3.00;;;1.58;;
11598;SDS011;5855;48.840;9.188;2023-12-20T13:35:15;2.72;;;1.50;;
11598;SDS011;5855;48.840;9.188;2023-12-20T13:37:42;4.38;;;1.30;;
11598;SDS011;5855;48.840;9.188;2023-12-20T13:40:09;3.80;;;1.40;;
11598;SDS011;5855;48.840;9.188;2023-12-20T13:42:37;5.03;;;1.45;;
11598;SDS011;5855;48.840;9.188;2023-12-20T13:45:04;3.35;;;1.45;;
11598;SDS011;5855;48.840;9.188;2023-12-20T13:47:34;3.72;;;1.67;;
11598;SDS011;5855;48.840;9.188;2023-12-20T13:50:01;3.47;;;1.33;;
11598;SDS011;5855;48.840;9.188;2023-12-20T13:52:29;5.03;;;1.65;;
11598;SDS011;5855;48.840;9.188;2023-12-20T13:54:56;4.78;;;1.30;;
11598;SDS011;5855;48.840;9.188;2023-12-20T13:57:22;3.28;;;1.40;;
11598;SDS011;5855;48.840;9.188;2023-12-20T13:59:49;5.20;;;1.52;;
11598;SDS011;5855;48.840;9.188;2023-12-20T14:02:16;4.20;;;1.40;;
11598;SDS011;5855;48.840;9.188;2023-12-20T14:04:44;3.60;;;1.60;;
11598;SDS011;5855;48.840;9.188;2023-12-20T14:07:11;4.43;;;1.67;;
11598;SDS011;5855;48.840;9.188;2023-12-20T14:09:38;3.15;;;1.63;;
11598;SDS011;5855;48.840;9.188;2023-12-20T14:12:10;3.97;;;1.40;;
11598;SDS011;5855;48.840;9.188;2023-12-20T14:14:37;5.72;;;1.38;;
11598;SDS011;5855;48.840;9.188;2023-12-20T14:17:04;6.20;;;1.38;;
11598;SDS011;5855;48.840;9.188;2023-12-20T14:19:32;4.97;;;1.60;;
11598;SDS011;5855;48.840;9.188;2023-12-20T14:22:00;4.78;;;1.70;;
11598;SDS011;5855;48.840;9.188;2023-12-20T14:24:28;3.05;;;1.48;;
11598;SDS011;5855;48.840;9.188;2023-12-20T14:26:55;4.10;;;1.50;;
11598;SDS011;5855;48.840;9.188;2023-12-20T14:29:24;4.25;;;1.38;;
11598;SDS011;5855;48.840;9.188;2023-12-20T14:31:52;6.00;;;1.83;;
11598;SDS011;5855;48.840;9.188;2023-12-20T14:34:19;5.35;;;1.60;;
11598;SDS011;5855;48.840;9.188;2023-12-20T14:36:45;8.52;;;1.98;;
11598;SDS011;5855;48.840;9.188;2023-12-20T14:39:14;3.75;;;1.65;;
11598;SDS011;5855;48.840;9.188;2023-12-20T14:41:42;5.40;;;1.60;;
11598;SDS011;5855;48.840;9.188;2023-12-20T14:44:10;5.85;;;1.92;;
11598;SDS011;5855;48.840;9.188;2023-12-20T14:46:36;4.93;;;1.67;;
11598;SDS011;5855;48.840;9.188;2023-12-20T14:49:04;9.10;;;2.10;;
11598;SDS011;5855;48.840;9.188;2023-12-20T14:51:32;3.13;;;1.40;;
11598;SDS011;5855;48.840;9.188;2023-12-20T14:53:59;6.85;;;1.60;;
11598;SDS011;5855;48.840;9.188;2023-12-20T14:56:28;3.22;;;1.73;;
11598;SDS011;5855;48.840;9.188;2023-12-20T14:58:55;5.03;;;1.90;;
11598;SDS011;5855;48.840;9.188;2023-12-20T15:01:22;4.07;;;1.48;;
11598;SDS011;5855;48.840;9.188;2023-12-20T15:03:49;4.65;;;1.85;;
11598;SDS011;5855;48.840;9.188;2023-12-20T15:06:15;5.32;;;1.90;;
11598;SDS011;5855;48.840;9.188;2023-12-20T15:08:43;6.20;;;2.20;;
11598;SDS011;5855;48.840;9.188;2023-12-20T15:11:11;3.55;;;1.80;;
11598;SDS011;5855;48.840;9.188;2023-12-20T15:13:39;4.38;;;2.10;;
11598;SDS011;5855;48.840;9.188;2023-12-20T15:16:07;5.03;;;1.80;;
11598;SDS011;5855;48.840;9.188;2023-12-20T15:18:34;4.18;;;1.73;;
11598;SDS011;5855;48.840;9.188;2023-12-20T15:21:01;4.43;;;1.70;;
11598;SDS011;5855;48.840;9.188;2023-12-20T15:23:28;4.78;;;1.67;;
11598;SDS011;5855;48.840;9.188;2023-12-20T15:25:55;4.65;;;1.63;;
11598;SDS011;5855;48.840;9.188;2023-12-20T15:28:22;5.90;;;1.33;;
11598;SDS011;5855;48.840;9.188;2023-12-20T15:30:50;3.15;;;1.63;;
11598;SDS011;5855;48.840;9.188;2023-12-20T15:33:17;3.92;;;1.50;;
11598;SDS011;5855;48.840;9.188;2023-12-20T15:35:44;3.25;;;1.35;;
11598;SDS011;5855;48.840;9.188;2023-12-20T15:38:11;4.00;;;1.67;;
11598;SDS011;5855;48.840;9.188;2023-12-20T15:40:39;5.72;;;1.55;;
11598;SDS011;5855;48.840;9.188;2023-12-20T15:43:05;4.03;;;1.67;;
11598;SDS011;5855;48.840;9.188;2023-12-20T15:45:32;3.53;;;1.70;;
11598;SDS011;5855;48.840;9.188;2023-12-20T15:48:00;3.63;;;1.60;;
11598;SDS011;5855;48.840;9.188;2023-12-20T15:50:26;5.40;;;1.95;;
11598;SDS011;5855;48.840;9.188;2023-12-20T15:52:53;5.57;;;1.88;;
11598;SDS011;5855;48.840;9.188;2023-12-20T15:55:21;5.80;;;2.20;;
11598;SDS011;5855;48.840;9.188;2023-12-20T15:57:47;3.25;;;1.52;;
11598;SDS011;5855;48.840;9.188;2023-12-20T16:00:15;4.68;;;1.70;;
11598;SDS011;5855;48.840;9.188;2023-12-20T16:02:42;5.55;;;1.60;;
11598;SDS011;5855;48.840;9.188;2023-12-20T16:05:10;2.30;;;1.50;;
11598;SDS011;5855;48.840;9.188;2023-12-20T16:07:37;4.13;;;1.55;;
11598;SDS011;5855;48.840;9.188;2023-12-20T16:10:04;4.05;;;1.50;;
11598;SDS011;5855;48.840;9.188;2023-12-20T16:12:32;4.65;;;2.00;;
11598;SDS011;5855;48.840;9.188;2023-12-20T16:14:58;2.65;;;1.50;;
11598;SDS011;5855;48.840;9.188;2023-12-20T16:17:26;4.35;;;1.55;;
11598;SDS011;5855;48.840;9.188;2023-12-20T16:19:53;3.85;;;1.60;;
11598;SDS011;5855;48.840;9.188;2023-12-20T16:22:21;3.17;;;1.50;;
11598;SDS011;5855;48.840;9.188;2023-12-20T16:24:48;2.63;;;1.55;;
11598;SDS011;5855;48.840;9.188;2023-12-20T16:27:15;5.75;;;1.90;;